Terminal Aerodrome Forecast
Issued by NWS

Home | Current Version | Previous Version | Text Only | Print | Product List | Glossary On
Versions: 1 2 3 4 5 6 7 8 9 10 11 12 13
000
FTUS46 KMTR 260541
TAFSJC
TAF
KSJC 260541Z 2606/2706 30006KT 6SM HZ FEW090
     FM261100 16004KT 4SM HZ SCT015 BKN100
     FM261900 30010KT 5SM HZ FEW015 SCT100
     FM270300 30008KT 6SM HZ FEW015 SCT100=

USA.gov is the U.S. government's official web portal to all federal, state and local government web resources and services.